sensor_id;sensor_type;location;lat;lon;timestamp;P1;durP1;ratioP1;P2;durP2;ratioP2
70800;SDS011;59616;52.170;5.386;2022-09-12T00:01:10;16.65;;;7.97;;
70800;SDS011;59616;52.170;5.386;2022-09-12T00:03:45;12.55;;;7.10;;
70800;SDS011;59616;52.170;5.386;2022-09-12T00:06:15;13.02;;;6.70;;
70800;SDS011;59616;52.170;5.386;2022-09-12T00:08:48;13.65;;;7.38;;
70800;SDS011;59616;52.170;5.386;2022-09-12T00:11:16;14.15;;;7.28;;
70800;SDS011;59616;52.170;5.386;2022-09-12T00:13:43;15.40;;;6.85;;
70800;SDS011;59616;52.170;5.386;2022-09-12T00:16:16;15.90;;;7.95;;
70800;SDS011;59616;52.170;5.386;2022-09-12T00:18:45;14.93;;;7.53;;
70800;SDS011;59616;52.170;5.386;2022-09-12T00:21:13;14.73;;;8.07;;
70800;SDS011;59616;52.170;5.386;2022-09-12T00:23:41;15.57;;;8.07;;
70800;SDS011;59616;52.170;5.386;2022-09-12T00:26:08;16.83;;;9.13;;
70800;SDS011;59616;52.170;5.386;2022-09-12T00:28:36;15.43;;;8.85;;
70800;SDS011;59616;52.170;5.386;2022-09-12T00:31:05;17.48;;;9.10;;
70800;SDS011;59616;52.170;5.386;2022-09-12T00:33:34;18.48;;;9.32;;
70800;SDS011;59616;52.170;5.386;2022-09-12T00:36:05;19.20;;;10.27;;
70800;SDS011;59616;52.170;5.386;2022-09-12T00:38:37;17.75;;;9.32;;
70800;SDS011;59616;52.170;5.386;2022-09-12T00:41:09;18.60;;;9.93;;
70800;SDS011;59616;52.170;5.386;2022-09-12T00:43:49;18.30;;;9.57;;
70800;SDS011;59616;52.170;5.386;2022-09-12T00:46:37;20.10;;;10.05;;
70800;SDS011;59616;52.170;5.386;2022-09-12T00:49:13;21.38;;;11.25;;
70800;SDS011;59616;52.170;5.386;2022-09-12T00:51:48;20.13;;;10.82;;
70800;SDS011;59616;52.170;5.386;2022-09-12T00:54:26;21.90;;;11.88;;
70800;SDS011;59616;52.170;5.386;2022-09-12T00:56:57;22.80;;;11.98;;
70800;SDS011;59616;52.170;5.386;2022-09-12T00:59:28;25.13;;;11.68;;
70800;SDS011;59616;52.170;5.386;2022-09-12T01:02:08;22.90;;;12.32;;
70800;SDS011;59616;52.170;5.386;2022-09-12T01:04:35;25.67;;;12.93;;
70800;SDS011;59616;52.170;5.386;2022-09-12T01:07:06;24.65;;;12.70;;
70800;SDS011;59616;52.170;5.386;2022-09-12T01:09:33;26.05;;;12.98;;
70800;SDS011;59616;52.170;5.386;2022-09-12T01:12:03;22.60;;;11.80;;
70800;SDS011;59616;52.170;5.386;2022-09-12T01:14:30;24.00;;;12.10;;
70800;SDS011;59616;52.170;5.386;2022-09-12T01:16:57;25.48;;;12.38;;
70800;SDS011;59616;52.170;5.386;2022-09-12T01:27:29;25.35;;;12.57;;
70800;SDS011;59616;52.170;5.386;2022-09-12T01:36:24;24.35;;;12.68;;
70800;SDS011;59616;52.170;5.386;2022-09-12T01:39:04;22.40;;;11.90;;
70800;SDS011;59616;52.170;5.386;2022-09-12T01:41:48;26.38;;;12.65;;
70800;SDS011;59616;52.170;5.386;2022-09-12T01:47:39;22.80;;;11.93;;
70800;SDS011;59616;52.170;5.386;2022-09-12T01:50:14;24.88;;;12.43;;
70800;SDS011;59616;52.170;5.386;2022-09-12T01:52:47;23.75;;;12.00;;
70800;SDS011;59616;52.170;5.386;2022-09-12T01:56:05;23.23;;;11.82;;
70800;SDS011;59616;52.170;5.386;2022-09-12T02:00:54;24.85;;;12.55;;
70800;SDS011;59616;52.170;5.386;2022-09-12T02:03:38;25.73;;;13.07;;
70800;SDS011;59616;52.170;5.386;2022-09-12T02:06:23;24.05;;;12.23;;
70800;SDS011;59616;52.170;5.386;2022-09-12T02:09:09;25.58;;;12.48;;
70800;SDS011;59616;52.170;5.386;2022-09-12T02:11:44;23.85;;;12.25;;
70800;SDS011;59616;52.170;5.386;2022-09-12T02:14:14;23.88;;;12.07;;
70800;SDS011;59616;52.170;5.386;2022-09-12T02:16:54;26.73;;;12.80;;
70800;SDS011;59616;52.170;5.386;2022-09-12T02:19:31;23.77;;;11.73;;
70800;SDS011;59616;52.170;5.386;2022-09-12T02:22:03;26.83;;;12.18;;
70800;SDS011;59616;52.170;5.386;2022-09-12T02:24:32;26.65;;;13.30;;
70800;SDS011;59616;52.170;5.386;2022-09-12T02:27:14;24.90;;;12.85;;
70800;SDS011;59616;52.170;5.386;2022-09-12T02:29:53;23.52;;;11.80;;
70800;SDS011;59616;52.170;5.386;2022-09-12T02:32:23;24.67;;;12.30;;
70800;SDS011;59616;52.170;5.386;2022-09-12T02:35:03;23.05;;;11.43;;
70800;SDS011;59616;52.170;5.386;2022-09-12T02:37:44;25.52;;;12.27;;
70800;SDS011;59616;52.170;5.386;2022-09-12T02:40:13;24.88;;;11.82;;
70800;SDS011;59616;52.170;5.386;2022-09-12T02:42:40;26.80;;;12.00;;
70800;SDS011;59616;52.170;5.386;2022-09-12T02:45:07;27.83;;;12.85;;
70800;SDS011;59616;52.170;5.386;2022-09-12T02:47:39;25.08;;;12.05;;
70800;SDS011;59616;52.170;5.386;2022-09-12T02:50:10;25.45;;;12.43;;
70800;SDS011;59616;52.170;5.386;2022-09-12T02:52:37;26.05;;;11.85;;
70800;SDS011;59616;52.170;5.386;2022-09-12T02:55:05;25.60;;;12.88;;
70800;SDS011;59616;52.170;5.386;2022-09-12T02:57:33;24.25;;;12.27;;
70800;SDS011;59616;52.170;5.386;2022-09-12T03:02:29;26.17;;;12.50;;
70800;SDS011;59616;52.170;5.386;2022-09-12T03:07:53;27.73;;;14.10;;
70800;SDS011;59616;52.170;5.386;2022-09-12T03:14:21;25.33;;;12.93;;
70800;SDS011;59616;52.170;5.386;2022-09-12T03:16:30;25.50;;;12.85;;
70800;SDS011;59616;52.170;5.386;2022-09-12T03:19:02;26.65;;;13.35;;
70800;SDS011;59616;52.170;5.386;2022-09-12T03:21:43;26.92;;;13.15;;
70800;SDS011;59616;52.170;5.386;2022-09-12T03:24:37;29.50;;;14.18;;
70800;SDS011;59616;52.170;5.386;2022-09-12T03:27:21;27.55;;;14.05;;
70800;SDS011;59616;52.170;5.386;2022-09-12T03:29:55;28.95;;;13.88;;
70800;SDS011;59616;52.170;5.386;2022-09-12T03:32:41;28.80;;;13.85;;
70800;SDS011;59616;52.170;5.386;2022-09-12T03:35:10;28.77;;;13.57;;
70800;SDS011;59616;52.170;5.386;2022-09-12T03:37:37;28.60;;;14.38;;
70800;SDS011;59616;52.170;5.386;2022-09-12T03:40:05;28.25;;;14.65;;
70800;SDS011;59616;52.170;5.386;2022-09-12T03:42:33;28.77;;;14.68;;
70800;SDS011;59616;52.170;5.386;2022-09-12T03:47:26;29.00;;;13.73;;
70800;SDS011;59616;52.170;5.386;2022-09-12T03:49:53;28.75;;;14.23;;
70800;SDS011;59616;52.170;5.386;2022-09-12T03:54:46;27.67;;;14.32;;
70800;SDS011;59616;52.170;5.386;2022-09-12T03:59:39;27.70;;;14.02;;
70800;SDS011;59616;52.170;5.386;2022-09-12T04:04:34;30.30;;;13.60;;
70800;SDS011;59616;52.170;5.386;2022-09-12T04:09:27;26.90;;;13.38;;
70800;SDS011;59616;52.170;5.386;2022-09-12T04:14:21;28.60;;;13.13;;
70800;SDS011;59616;52.170;5.386;2022-09-12T04:16:47;28.05;;;13.77;;
70800;SDS011;59616;52.170;5.386;2022-09-12T04:21:40;28.63;;;13.60;;
70800;SDS011;59616;52.170;5.386;2022-09-12T04:26:34;28.33;;;13.98;;
70800;SDS011;59616;52.170;5.386;2022-09-12T04:29:00;30.35;;;15.32;;
70800;SDS011;59616;52.170;5.386;2022-09-12T04:31:27;30.33;;;14.55;;
70800;SDS011;59616;52.170;5.386;2022-09-12T04:36:21;33.58;;;15.27;;
70800;SDS011;59616;52.170;5.386;2022-09-12T04:38:48;33.25;;;15.73;;
70800;SDS011;59616;52.170;5.386;2022-09-12T04:41:16;33.60;;;14.55;;
70800;SDS011;59616;52.170;5.386;2022-09-12T04:43:44;30.55;;;15.27;;
70800;SDS011;59616;52.170;5.386;2022-09-12T04:46:12;32.45;;;15.75;;
70800;SDS011;59616;52.170;5.386;2022-09-12T04:48:41;32.30;;;16.27;;
70800;SDS011;59616;52.170;5.386;2022-09-12T04:51:09;37.25;;;15.50;;
70800;SDS011;59616;52.170;5.386;2022-09-12T04:53:47;32.97;;;16.20;;
70800;SDS011;59616;52.170;5.386;2022-09-12T04:56:15;31.73;;;15.02;;
70800;SDS011;59616;52.170;5.386;2022-09-12T04:58:42;30.33;;;15.32;;
70800;SDS011;59616;52.170;5.386;2022-09-12T05:01:13;35.90;;;16.63;;
70800;SDS011;59616;52.170;5.386;2022-09-12T05:03:45;35.35;;;16.90;;
70800;SDS011;59616;52.170;5.386;2022-09-12T05:06:20;35.85;;;16.05;;
70800;SDS011;59616;52.170;5.386;2022-09-12T05:08:49;35.92;;;16.33;;
70800;SDS011;59616;52.170;5.386;2022-09-12T05:11:21;33.85;;;16.33;;
70800;SDS011;59616;52.170;5.386;2022-09-12T05:13:55;35.15;;;16.38;;
70800;SDS011;59616;52.170;5.386;2022-09-12T05:16:23;34.90;;;17.00;;
70800;SDS011;59616;52.170;5.386;2022-09-12T05:18:51;34.22;;;16.95;;
70800;SDS011;59616;52.170;5.386;2022-09-12T05:21:19;38.78;;;16.35;;
70800;SDS011;59616;52.170;5.386;2022-09-12T05:23:51;35.78;;;15.82;;
70800;SDS011;59616;52.170;5.386;2022-09-12T05:26:19;34.33;;;15.82;;
70800;SDS011;59616;52.170;5.386;2022-09-12T05:28:47;34.67;;;16.33;;
70800;SDS011;59616;52.170;5.386;2022-09-12T05:31:15;34.90;;;16.65;;
70800;SDS011;59616;52.170;5.386;2022-09-12T05:33:47;35.65;;;16.70;;
70800;SDS011;59616;52.170;5.386;2022-09-12T05:36:16;35.00;;;16.73;;
70800;SDS011;59616;52.170;5.386;2022-09-12T05:38:50;38.80;;;16.88;;
70800;SDS011;59616;52.170;5.386;2022-09-12T05:41:18;35.88;;;17.83;;
70800;SDS011;59616;52.170;5.386;2022-09-12T05:46:18;37.25;;;17.00;;
70800;SDS011;59616;52.170;5.386;2022-09-12T05:48:46;36.67;;;16.75;;
70800;SDS011;59616;52.170;5.386;2022-09-12T05:51:21;38.17;;;18.35;;
70800;SDS011;59616;52.170;5.386;2022-09-12T05:53:53;39.88;;;16.75;;
70800;SDS011;59616;52.170;5.386;2022-09-12T05:56:22;36.55;;;17.05;;
70800;SDS011;59616;52.170;5.386;2022-09-12T06:01:23;42.90;;;18.25;;
70800;SDS011;59616;52.170;5.386;2022-09-12T06:03:51;39.25;;;18.13;;
70800;SDS011;59616;52.170;5.386;2022-09-12T06:06:20;41.85;;;18.80;;
70800;SDS011;59616;52.170;5.386;2022-09-12T06:08:48;42.88;;;18.05;;
70800;SDS011;59616;52.170;5.386;2022-09-12T06:11:18;38.55;;;17.92;;
70800;SDS011;59616;52.170;5.386;2022-09-12T06:13:46;42.28;;;18.52;;
70800;SDS011;59616;52.170;5.386;2022-09-12T06:16:14;43.63;;;18.80;;
70800;SDS011;59616;52.170;5.386;2022-09-12T06:18:46;40.85;;;18.65;;
70800;SDS011;59616;52.170;5.386;2022-09-12T06:21:14;44.47;;;20.20;;
70800;SDS011;59616;52.170;5.386;2022-09-12T06:23:41;43.33;;;18.90;;
70800;SDS011;59616;52.170;5.386;2022-09-12T06:26:09;47.67;;;19.65;;
70800;SDS011;59616;52.170;5.386;2022-09-12T06:28:37;47.25;;;21.02;;
70800;SDS011;59616;52.170;5.386;2022-09-12T06:31:08;50.42;;;20.77;;
70800;SDS011;59616;52.170;5.386;2022-09-12T06:33:39;46.05;;;19.98;;
70800;SDS011;59616;52.170;5.386;2022-09-12T06:36:08;47.33;;;21.38;;
70800;SDS011;59616;52.170;5.386;2022-09-12T06:38:43;49.22;;;21.40;;
70800;SDS011;59616;52.170;5.386;2022-09-12T06:41:14;44.70;;;20.80;;
70800;SDS011;59616;52.170;5.386;2022-09-12T06:43:41;45.13;;;20.35;;
70800;SDS011;59616;52.170;5.386;2022-09-12T06:46:08;51.45;;;22.00;;
70800;SDS011;59616;52.170;5.386;2022-09-12T06:48:35;46.33;;;20.33;;
70800;SDS011;59616;52.170;5.386;2022-09-12T06:51:14;45.58;;;20.45;;
70800;SDS011;59616;52.170;5.386;2022-09-12T06:53:43;52.90;;;21.33;;
70800;SDS011;59616;52.170;5.386;2022-09-12T06:58:40;50.30;;;21.83;;
70800;SDS011;59616;52.170;5.386;2022-09-12T07:01:08;45.92;;;21.85;;
70800;SDS011;59616;52.170;5.386;2022-09-12T07:03:37;53.90;;;22.52;;
70800;SDS011;59616;52.170;5.386;2022-09-12T07:06:05;47.92;;;20.73;;
70800;SDS011;59616;52.170;5.386;2022-09-12T07:08:36;50.70;;;22.98;;
70800;SDS011;59616;52.170;5.386;2022-09-12T07:11:07;55.65;;;22.33;;
70800;SDS011;59616;52.170;5.386;2022-09-12T07:13:34;53.15;;;23.30;;
70800;SDS011;59616;52.170;5.386;2022-09-12T07:16:01;54.70;;;24.25;;
70800;SDS011;59616;52.170;5.386;2022-09-12T07:18:29;51.15;;;22.60;;
70800;SDS011;59616;52.170;5.386;2022-09-12T07:20:58;53.22;;;22.23;;
70800;SDS011;59616;52.170;5.386;2022-09-12T07:23:27;60.92;;;23.98;;
70800;SDS011;59616;52.170;5.386;2022-09-12T07:25:55;54.08;;;22.92;;
70800;SDS011;59616;52.170;5.386;2022-09-12T07:28:23;53.58;;;22.33;;
70800;SDS011;59616;52.170;5.386;2022-09-12T07:30:51;52.22;;;21.92;;
70800;SDS011;59616;52.170;5.386;2022-09-12T07:33:19;52.22;;;22.90;;
70800;SDS011;59616;52.170;5.386;2022-09-12T07:35:47;50.25;;;22.15;;
70800;SDS011;59616;52.170;5.386;2022-09-12T07:38:15;52.05;;;22.25;;
70800;SDS011;59616;52.170;5.386;2022-09-12T07:40:42;48.50;;;22.13;;
70800;SDS011;59616;52.170;5.386;2022-09-12T07:43:09;51.65;;;22.52;;
70800;SDS011;59616;52.170;5.386;2022-09-12T07:45:35;49.25;;;20.55;;
70800;SDS011;59616;52.170;5.386;2022-09-12T07:48:02;48.58;;;21.92;;
70800;SDS011;59616;52.170;5.386;2022-09-12T07:50:29;52.90;;;21.77;;
70800;SDS011;59616;52.170;5.386;2022-09-12T07:52:56;52.13;;;21.33;;
70800;SDS011;59616;52.170;5.386;2022-09-12T07:57:50;48.83;;;21.40;;
70800;SDS011;59616;52.170;5.386;2022-09-12T08:00:17;48.88;;;22.95;;
70800;SDS011;59616;52.170;5.386;2022-09-12T08:02:44;48.90;;;22.08;;
70800;SDS011;59616;52.170;5.386;2022-09-12T08:05:15;44.53;;;20.48;;
70800;SDS011;59616;52.170;5.386;2022-09-12T08:07:42;45.13;;;21.23;;
70800;SDS011;59616;52.170;5.386;2022-09-12T08:10:08;46.58;;;20.42;;
70800;SDS011;59616;52.170;5.386;2022-09-12T08:12:35;50.20;;;22.13;;
70800;SDS011;59616;52.170;5.386;2022-09-12T08:15:02;45.90;;;20.88;;
70800;SDS011;59616;52.170;5.386;2022-09-12T08:17:28;45.38;;;20.75;;
70800;SDS011;59616;52.170;5.386;2022-09-12T08:19:55;51.00;;;21.65;;
70800;SDS011;59616;52.170;5.386;2022-09-12T08:22:22;48.03;;;21.95;;
70800;SDS011;59616;52.170;5.386;2022-09-12T08:24:49;47.33;;;21.15;;
70800;SDS011;59616;52.170;5.386;2022-09-12T08:27:16;44.60;;;20.60;;
70800;SDS011;59616;52.170;5.386;2022-09-12T08:29:42;41.45;;;19.85;;
70800;SDS011;59616;52.170;5.386;2022-09-12T08:32:09;43.20;;;20.27;;
70800;SDS011;59616;52.170;5.386;2022-09-12T08:34:36;43.53;;;20.30;;
70800;SDS011;59616;52.170;5.386;2022-09-12T08:37:03;39.30;;;19.05;;
70800;SDS011;59616;52.170;5.386;2022-09-12T08:39:29;43.67;;;19.23;;
70800;SDS011;59616;52.170;5.386;2022-09-12T08:42:01;39.50;;;18.70;;
70800;SDS011;59616;52.170;5.386;2022-09-12T08:47:21;37.75;;;18.38;;
70800;SDS011;59616;52.170;5.386;2022-09-12T08:55:15;32.05;;;14.95;;
70800;SDS011;59616;52.170;5.386;2022-09-12T08:57:52;32.80;;;15.73;;
70800;SDS011;59616;52.170;5.386;2022-09-12T09:00:19;30.88;;;15.27;;
70800;SDS011;59616;52.170;5.386;2022-09-12T09:08:20;32.25;;;16.33;;
70800;SDS011;59616;52.170;5.386;2022-09-12T09:10:59;31.58;;;15.55;;
70800;SDS011;59616;52.170;5.386;2022-09-12T09:16:42;31.55;;;15.27;;
70800;SDS011;59616;52.170;5.386;2022-09-12T09:19:14;31.15;;;15.70;;
70800;SDS011;59616;52.170;5.386;2022-09-12T09:21:58;27.40;;;13.52;;
70800;SDS011;59616;52.170;5.386;2022-09-12T09:24:38;26.52;;;13.82;;
70800;SDS011;59616;52.170;5.386;2022-09-12T09:27:16;26.45;;;12.70;;
70800;SDS011;59616;52.170;5.386;2022-09-12T09:30:16;25.05;;;12.35;;
70800;SDS011;59616;52.170;5.386;2022-09-12T09:32:46;24.15;;;12.40;;
70800;SDS011;59616;52.170;5.386;2022-09-12T09:35:18;24.65;;;12.10;;
70800;SDS011;59616;52.170;5.386;2022-09-12T09:38:03;26.88;;;12.38;;
70800;SDS011;59616;52.170;5.386;2022-09-12T09:43:21;26.75;;;13.15;;
70800;SDS011;59616;52.170;5.386;2022-09-12T09:45:50;22.77;;;11.82;;
70800;SDS011;59616;52.170;5.386;2022-09-12T09:48:19;25.00;;;12.25;;
70800;SDS011;59616;52.170;5.386;2022-09-12T09:50:50;22.00;;;11.55;;
70800;SDS011;59616;52.170;5.386;2022-09-12T09:56:00;20.27;;;9.40;;
70800;SDS011;59616;52.170;5.386;2022-09-12T09:58:33;18.75;;;10.75;;
70800;SDS011;59616;52.170;5.386;2022-09-12T10:01:01;18.77;;;10.05;;
70800;SDS011;59616;52.170;5.386;2022-09-12T10:03:32;19.23;;;9.45;;
70800;SDS011;59616;52.170;5.386;2022-09-12T10:06:06;18.42;;;9.82;;
70800;SDS011;59616;52.170;5.386;2022-09-12T10:08:47;20.02;;;10.02;;
70800;SDS011;59616;52.170;5.386;2022-09-12T10:11:18;18.48;;;9.05;;
70800;SDS011;59616;52.170;5.386;2022-09-12T10:13:55;18.20;;;9.40;;
70800;SDS011;59616;52.170;5.386;2022-09-12T10:16:24;18.55;;;9.65;;
70800;SDS011;59616;52.170;5.386;2022-09-12T10:18:56;18.65;;;9.35;;
70800;SDS011;59616;52.170;5.386;2022-09-12T10:21:29;19.52;;;9.15;;
70800;SDS011;59616;52.170;5.386;2022-09-12T10:26:41;16.77;;;9.35;;
70800;SDS011;59616;52.170;5.386;2022-09-12T10:29:14;18.23;;;9.05;;
70800;SDS011;59616;52.170;5.386;2022-09-12T10:31:49;15.05;;;7.93;;
70800;SDS011;59616;52.170;5.386;2022-09-12T10:34:23;15.85;;;8.90;;
70800;SDS011;59616;52.170;5.386;2022-09-12T10:37:03;17.70;;;7.95;;
70800;SDS011;59616;52.170;5.386;2022-09-12T10:39:32;16.48;;;8.90;;
70800;SDS011;59616;52.170;5.386;2022-09-12T10:42:02;16.83;;;9.48;;
70800;SDS011;59616;52.170;5.386;2022-09-12T10:44:33;15.38;;;8.73;;
70800;SDS011;59616;52.170;5.386;2022-09-12T10:47:18;17.45;;;8.60;;
70800;SDS011;59616;52.170;5.386;2022-09-12T10:49:46;17.02;;;7.78;;
70800;SDS011;59616;52.170;5.386;2022-09-12T10:52:24;17.02;;;8.57;;
70800;SDS011;59616;52.170;5.386;2022-09-12T10:54:52;16.95;;;8.30;;
70800;SDS011;59616;52.170;5.386;2022-09-12T10:57:34;13.07;;;7.10;;
70800;SDS011;59616;52.170;5.386;2022-09-12T11:00:25;12.95;;;6.68;;
70800;SDS011;59616;52.170;5.386;2022-09-12T11:03:04;14.02;;;6.72;;
70800;SDS011;59616;52.170;5.386;2022-09-12T11:16:09;12.95;;;6.50;;
70800;SDS011;59616;52.170;5.386;2022-09-12T11:21:37;10.43;;;4.55;;
70800;SDS011;59616;52.170;5.386;2022-09-12T11:29:57;10.20;;;5.00;;
70800;SDS011;59616;52.170;5.386;2022-09-12T11:40:31;10.13;;;4.70;;
70800;SDS011;59616;52.170;5.386;2022-09-12T11:43:18;10.60;;;4.75;;
70800;SDS011;59616;52.170;5.386;2022-09-12T11:45:50;11.98;;;4.45;;
70800;SDS011;59616;52.170;5.386;2022-09-12T11:51:03;9.13;;;4.40;;
70800;SDS011;59616;52.170;5.386;2022-09-12T11:53:40;8.35;;;4.07;;
70800;SDS011;59616;52.170;5.386;2022-09-12T11:56:12;8.57;;;3.75;;
70800;SDS011;59616;52.170;5.386;2022-09-12T11:58:42;10.23;;;4.75;;
70800;SDS011;59616;52.170;5.386;2022-09-12T12:01:18;8.70;;;4.40;;
70800;SDS011;59616;52.170;5.386;2022-09-12T12:04:14;9.30;;;4.03;;
70800;SDS011;59616;52.170;5.386;2022-09-12T12:06:48;7.82;;;3.67;;
70800;SDS011;59616;52.170;5.386;2022-09-12T12:09:21;7.72;;;3.60;;
70800;SDS011;59616;52.170;5.386;2022-09-12T12:11:49;7.35;;;3.70;;
70800;SDS011;59616;52.170;5.386;2022-09-12T12:14:39;8.05;;;3.53;;
70800;SDS011;59616;52.170;5.386;2022-09-12T12:17:27;7.38;;;2.90;;
70800;SDS011;59616;52.170;5.386;2022-09-12T12:19:56;7.20;;;3.10;;
70800;SDS011;59616;52.170;5.386;2022-09-12T12:22:33;8.10;;;2.95;;
70800;SDS011;59616;52.170;5.386;2022-09-12T12:25:06;7.78;;;2.97;;
70800;SDS011;59616;52.170;5.386;2022-09-12T12:27:55;6.97;;;3.33;;
70800;SDS011;59616;52.170;5.386;2022-09-12T12:38:31;8.75;;;3.90;;
70800;SDS011;59616;52.170;5.386;2022-09-12T12:43:45;7.55;;;3.90;;
70800;SDS011;59616;52.170;5.386;2022-09-12T12:46:13;7.28;;;3.15;;
70800;SDS011;59616;52.170;5.386;2022-09-12T12:49:28;7.93;;;3.30;;
70800;SDS011;59616;52.170;5.386;2022-09-12T13:05:03;8.18;;;3.35;;
70800;SDS011;59616;52.170;5.386;2022-09-12T13:10:18;7.13;;;3.15;;
70800;SDS011;59616;52.170;5.386;2022-09-12T13:12:48;7.13;;;3.05;;
70800;SDS011;59616;52.170;5.386;2022-09-12T13:18:05;6.57;;;3.05;;
70800;SDS011;59616;52.170;5.386;2022-09-12T13:20:37;7.28;;;3.40;;
70800;SDS011;59616;52.170;5.386;2022-09-12T13:23:21;7.18;;;2.85;;
70800;SDS011;59616;52.170;5.386;2022-09-12T13:25:56;7.80;;;3.50;;
70800;SDS011;59616;52.170;5.386;2022-09-12T13:28:26;8.27;;;3.28;;
70800;SDS011;59616;52.170;5.386;2022-09-12T13:33:29;7.30;;;3.00;;
70800;SDS011;59616;52.170;5.386;2022-09-12T13:36:04;8.10;;;3.50;;
70800;SDS011;59616;52.170;5.386;2022-09-12T13:38:50;9.07;;;3.22;;
70800;SDS011;59616;52.170;5.386;2022-09-12T13:44:16;6.85;;;2.90;;
70800;SDS011;59616;52.170;5.386;2022-09-12T13:46:46;7.93;;;3.40;;
70800;SDS011;59616;52.170;5.386;2022-09-12T13:49:21;8.00;;;4.03;;
70800;SDS011;59616;52.170;5.386;2022-09-12T13:51:59;7.22;;;3.25;;
70800;SDS011;59616;52.170;5.386;2022-09-12T13:54:29;7.15;;;3.22;;
70800;SDS011;59616;52.170;5.386;2022-09-12T13:56:56;7.75;;;3.10;;
70800;SDS011;59616;52.170;5.386;2022-09-12T13:59:24;6.07;;;2.67;;
70800;SDS011;59616;52.170;5.386;2022-09-12T14:01:51;6.80;;;2.85;;
70800;SDS011;59616;52.170;5.386;2022-09-12T14:04:22;8.90;;;3.03;;
70800;SDS011;59616;52.170;5.386;2022-09-12T14:09:41;6.63;;;3.05;;
70800;SDS011;59616;52.170;5.386;2022-09-12T14:12:26;7.35;;;3.60;;
70800;SDS011;59616;52.170;5.386;2022-09-12T14:14:57;7.13;;;3.10;;
70800;SDS011;59616;52.170;5.386;2022-09-12T14:17:26;7.50;;;2.97;;
70800;SDS011;59616;52.170;5.386;2022-09-12T14:19:59;7.05;;;3.08;;
70800;SDS011;59616;52.170;5.386;2022-09-12T14:22:28;6.47;;;2.72;;
70800;SDS011;59616;52.170;5.386;2022-09-12T14:24:56;7.97;;;3.30;;
70800;SDS011;59616;52.170;5.386;2022-09-12T14:27:25;7.65;;;3.05;;
70800;SDS011;59616;52.170;5.386;2022-09-12T14:29:59;7.72;;;3.17;;
70800;SDS011;59616;52.170;5.386;2022-09-12T14:32:34;7.50;;;3.30;;
70800;SDS011;59616;52.170;5.386;2022-09-12T14:37:46;5.68;;;2.70;;
70800;SDS011;59616;52.170;5.386;2022-09-12T14:40:16;5.90;;;2.75;;
70800;SDS011;59616;52.170;5.386;2022-09-12T14:42:45;7.45;;;3.05;;
70800;SDS011;59616;52.170;5.386;2022-09-12T14:45:23;7.85;;;2.90;;
70800;SDS011;59616;52.170;5.386;2022-09-12T14:47:54;6.38;;;2.70;;
70800;SDS011;59616;52.170;5.386;2022-09-12T14:50:22;7.53;;;3.00;;
70800;SDS011;59616;52.170;5.386;2022-09-12T14:55:56;8.52;;;3.20;;
70800;SDS011;59616;52.170;5.386;2022-09-12T14:58:30;8.32;;;3.10;;
70800;SDS011;59616;52.170;5.386;2022-09-12T15:01:01;7.50;;;3.00;;
70800;SDS011;59616;52.170;5.386;2022-09-12T15:03:53;10.55;;;3.33;;
70800;SDS011;59616;52.170;5.386;2022-09-12T15:06:29;7.05;;;2.97;;
70800;SDS011;59616;52.170;5.386;2022-09-12T15:08:58;7.25;;;3.30;;
70800;SDS011;59616;52.170;5.386;2022-09-12T15:11:28;7.70;;;2.90;;
70800;SDS011;59616;52.170;5.386;2022-09-12T15:13:54;7.18;;;2.78;;
70800;SDS011;59616;52.170;5.386;2022-09-12T15:16:21;8.13;;;2.92;;
70800;SDS011;59616;52.170;5.386;2022-09-12T15:18:48;6.72;;;3.03;;
70800;SDS011;59616;52.170;5.386;2022-09-12T15:21:15;5.57;;;2.65;;
70800;SDS011;59616;52.170;5.386;2022-09-12T15:23:47;6.40;;;2.72;;
70800;SDS011;59616;52.170;5.386;2022-09-12T15:26:19;7.18;;;2.70;;
70800;SDS011;59616;52.170;5.386;2022-09-12T15:28:47;7.60;;;3.10;;
70800;SDS011;59616;52.170;5.386;2022-09-12T15:31:21;7.15;;;3.25;;
70800;SDS011;59616;52.170;5.386;2022-09-12T15:33:53;6.70;;;2.90;;
70800;SDS011;59616;52.170;5.386;2022-09-12T15:36:21;7.80;;;3.20;;
70800;SDS011;59616;52.170;5.386;2022-09-12T15:38:49;8.07;;;3.15;;
70800;SDS011;59616;52.170;5.386;2022-09-12T15:41:35;6.55;;;3.00;;
70800;SDS011;59616;52.170;5.386;2022-09-12T15:44:03;7.22;;;2.90;;
70800;SDS011;59616;52.170;5.386;2022-09-12T15:46:31;7.40;;;2.67;;
70800;SDS011;59616;52.170;5.386;2022-09-12T15:48:58;6.47;;;2.78;;
70800;SDS011;59616;52.170;5.386;2022-09-12T15:51:25;6.00;;;2.63;;
70800;SDS011;59616;52.170;5.386;2022-09-12T15:53:52;7.30;;;2.90;;
70800;SDS011;59616;52.170;5.386;2022-09-12T15:56:20;5.20;;;2.42;;
70800;SDS011;59616;52.170;5.386;2022-09-12T15:58:47;5.53;;;2.67;;
70800;SDS011;59616;52.170;5.386;2022-09-12T16:01:25;5.68;;;2.72;;
70800;SDS011;59616;52.170;5.386;2022-09-12T16:03:53;7.30;;;3.22;;
70800;SDS011;59616;52.170;5.386;2022-09-12T16:06:19;9.43;;;3.60;;
70800;SDS011;59616;52.170;5.386;2022-09-12T16:08:47;7.07;;;2.88;;
70800;SDS011;59616;52.170;5.386;2022-09-12T16:11:23;6.10;;;2.65;;
70800;SDS011;59616;52.170;5.386;2022-09-12T16:13:51;8.45;;;3.05;;
70800;SDS011;59616;52.170;5.386;2022-09-12T16:16:19;7.70;;;3.10;;
70800;SDS011;59616;52.170;5.386;2022-09-12T16:18:46;7.53;;;2.67;;
70800;SDS011;59616;52.170;5.386;2022-09-12T16:21:13;5.95;;;2.75;;
70800;SDS011;59616;52.170;5.386;2022-09-12T16:23:44;8.75;;;2.60;;
70800;SDS011;59616;52.170;5.386;2022-09-12T16:26:12;6.30;;;2.65;;
70800;SDS011;59616;52.170;5.386;2022-09-12T16:28:39;6.60;;;2.70;;
70800;SDS011;59616;52.170;5.386;2022-09-12T16:31:07;6.38;;;2.30;;
70800;SDS011;59616;52.170;5.386;2022-09-12T16:33:36;7.30;;;2.65;;
70800;SDS011;59616;52.170;5.386;2022-09-12T16:36:10;6.25;;;2.42;;
70800;SDS011;59616;52.170;5.386;2022-09-12T16:38:39;5.45;;;2.33;;
70800;SDS011;59616;52.170;5.386;2022-09-12T16:41:07;5.65;;;2.30;;
70800;SDS011;59616;52.170;5.386;2022-09-12T16:43:34;5.05;;;2.33;;
70800;SDS011;59616;52.170;5.386;2022-09-12T16:46:02;5.72;;;2.33;;
70800;SDS011;59616;52.170;5.386;2022-09-12T16:48:30;5.88;;;2.33;;
70800;SDS011;59616;52.170;5.386;2022-09-12T16:50:57;6.00;;;2.58;;
70800;SDS011;59616;52.170;5.386;2022-09-12T16:53:28;5.95;;;2.33;;
70800;SDS011;59616;52.170;5.386;2022-09-12T16:55:59;6.10;;;2.28;;
70800;SDS011;59616;52.170;5.386;2022-09-12T16:58:26;6.38;;;2.25;;
70800;SDS011;59616;52.170;5.386;2022-09-12T17:00:59;6.22;;;2.60;;
70800;SDS011;59616;52.170;5.386;2022-09-12T17:03:28;5.43;;;2.30;;
70800;SDS011;59616;52.170;5.386;2022-09-12T17:05:56;6.20;;;2.30;;
70800;SDS011;59616;52.170;5.386;2022-09-12T17:08:24;5.70;;;2.60;;
70800;SDS011;59616;52.170;5.386;2022-09-12T17:10:51;6.97;;;2.97;;
70800;SDS011;59616;52.170;5.386;2022-09-12T17:13:18;5.55;;;2.50;;
70800;SDS011;59616;52.170;5.386;2022-09-12T17:15:44;7.32;;;2.65;;
70800;SDS011;59616;52.170;5.386;2022-09-12T17:18:11;5.15;;;2.30;;
70800;SDS011;59616;52.170;5.386;2022-09-12T17:20:38;6.40;;;2.45;;
70800;SDS011;59616;52.170;5.386;2022-09-12T17:23:04;7.47;;;2.60;;
70800;SDS011;59616;52.170;5.386;2022-09-12T17:25:35;8.52;;;2.28;;
70800;SDS011;59616;52.170;5.386;2022-09-12T17:28:01;7.25;;;2.30;;
70800;SDS011;59616;52.170;5.386;2022-09-12T17:30:34;6.20;;;2.42;;
70800;SDS011;59616;52.170;5.386;2022-09-12T17:33:01;6.55;;;2.72;;
70800;SDS011;59616;52.170;5.386;2022-09-12T17:35:28;6.57;;;2.65;;